Дата Пункты Температура Давл., мм. Влажн., % Ветер Погодные явления
Воздуха Воды Направл. Скорость
01.11.19 02:00 Одесса 8.0 13.0 766 42 С 1 14 ГОДИН
01.11.19 11:00 Одесса 7.0 13.0 767 54 Пн 1 11 ГОДИН
01.11.19 08:00 Одесса 3.0 13.0 767 76 Пн 0 08 ГОДИН
01.11.19 05:00 Одесса 2.0 12.0 766 70 Пн-З 1 05 ГОДИН
01.11.19 02:00 Одесса 5.0 12.0 766 47 Пн-С 5 02 ГОДИНИ
31.10.19 11:00 Одесса 6.0 13.0 767 50 С 5 23 ГОДИНИ
31.10.19 08:00 Одесса 7.0 13.0 766 52 Пн-С 5 20 ГОДИН
31.10.19 05:00 Одесса 6.0 14.0 766 57 С 2 17 ГОДИН
31.10.19 02:00 Одесса 7.0 14.0 766 54 Пн-С 2 14 ГОДИН
31.10.19 11:00 Одесса 8.0 13.0 767 64 Пн 3 11 ГОДИН
31.10.19 08:00 Одесса 4.0 13.0 767 78 Пн 2 08 ГОДИН
31.10.19 05:00 Одесса 6.0 13.0 766 79 Пн 1 05 ГОДИН
31.10.19 02:00 Одесса 7.0 13.0 766 67 Пн-С 2 02 ГОДИНИ
30.10.19 11:00 Одесса 8.0 13.0 766 57 Пн-С 5 23 ГОДИНИ
30.10.19 08:00 Одесса 8.0 13.0 765 57 Пн 5 20 ГОДИН
30.10.19 05:00 Одесса 9.0 14.0 765 53 Пн-З 2 17 ГОДИН
30.10.19 02:00 Одесса 12.0 14.0 764 48 Пн 1 14 ГОДИН
30.10.19 11:00 Одесса 12.0 14.0 764 62 Пн 2 11 ГОДИН
30.10.19 08:00 Одесса 8.0 14.0 763 74 Пн-З 3 08 ГОДИН
30.10.19 05:00 Одесса 8.0 14.0 762 76 Пн-З 2 05 ГОДИН
Количество строк
1 2 3 4 5 6 7 8 9 10
Page 8 of 553